sensor_id;sensor_type;location;lat;lon;timestamp;pressure;altitude;pressure_sealevel;temperature;humidity
74542;BME280;63015;45.378;20.360;2023-03-13T00:01:56;101258.75;;;1.83;62.90
74542;BME280;63015;45.378;20.360;2023-03-13T00:03:57;101251.94;;;1.83;63.08
74542;BME280;63015;45.378;20.360;2023-03-13T00:05:58;101245.88;;;1.83;63.12
74542;BME280;63015;45.378;20.360;2023-03-13T00:07:58;101246.63;;;1.80;63.40
74542;BME280;63015;45.378;20.360;2023-03-13T00:09:59;101241.13;;;1.72;63.89
74542;BME280;63015;45.378;20.360;2023-03-13T00:11:59;101243.63;;;1.71;63.47
74542;BME280;63015;45.378;20.360;2023-03-13T00:14:01;101257.34;;;1.71;63.30
74542;BME280;63015;45.378;20.360;2023-03-13T00:16:11;101253.91;;;1.71;63.76
74542;BME280;63015;45.378;20.360;2023-03-13T00:18:11;101247.00;;;1.70;63.41
74542;BME280;63015;45.378;20.360;2023-03-13T00:20:12;101245.97;;;1.66;63.65
74542;BME280;63015;45.378;20.360;2023-03-13T00:22:13;101246.69;;;1.63;63.95
74542;BME280;63015;45.378;20.360;2023-03-13T00:24:13;101238.13;;;1.63;64.04
74542;BME280;63015;45.378;20.360;2023-03-13T00:26:16;101257.78;;;1.62;63.99
74542;BME280;63015;45.378;20.360;2023-03-13T00:28:17;101263.81;;;1.63;63.87
74542;BME280;63015;45.378;20.360;2023-03-13T00:30:18;101255.28;;;1.64;64.06
74542;BME280;63015;45.378;20.360;2023-03-13T00:32:18;101258.66;;;1.63;64.11
74542;BME280;63015;45.378;20.360;2023-03-13T00:34:19;101252.66;;;1.62;63.61
74542;BME280;63015;45.378;20.360;2023-03-13T00:36:25;101248.38;;;1.63;63.71
74542;BME280;63015;45.378;20.360;2023-03-13T00:38:27;101246.69;;;1.63;63.92
74542;BME280;63015;45.378;20.360;2023-03-13T00:40:27;101245.81;;;1.63;63.73
74542;BME280;63015;45.378;20.360;2023-03-13T00:42:28;101239.66;;;1.59;63.83
74542;BME280;63015;45.378;20.360;2023-03-13T00:44:29;101240.38;;;1.57;64.10
74542;BME280;63015;45.378;20.360;2023-03-13T00:46:29;101247.94;;;1.54;64.10
74542;BME280;63015;45.378;20.360;2023-03-13T00:48:30;101243.69;;;1.54;64.40
74542;BME280;63015;45.378;20.360;2023-03-13T00:50:33;101248.69;;;1.51;64.81
74542;BME280;63015;45.378;20.360;2023-03-13T00:52:34;101246.97;;;1.52;64.32
74542;BME280;63015;45.378;20.360;2023-03-13T00:54:34;101252.28;;;1.55;64.16
74542;BME280;63015;45.378;20.360;2023-03-13T00:56:34;101260.88;;;1.55;63.96
74542;BME280;63015;45.378;20.360;2023-03-13T00:58:38;101259.16;;;1.56;64.05
74542;BME280;63015;45.378;20.360;2023-03-13T01:00:39;101262.56;;;1.55;63.93
74542;BME280;63015;45.378;20.360;2023-03-13T01:02:41;101265.13;;;1.55;64.00
74542;BME280;63015;45.378;20.360;2023-03-13T01:04:42;101271.13;;;1.55;63.82
74542;BME280;63015;45.378;20.360;2023-03-13T01:06:42;101267.84;;;1.58;63.82
74542;BME280;63015;45.378;20.360;2023-03-13T01:08:43;101275.69;;;1.61;63.61
74542;BME280;63015;45.378;20.360;2023-03-13T01:10:44;101275.63;;;1.59;63.90
74542;BME280;63015;45.378;20.360;2023-03-13T01:12:45;101287.59;;;1.59;63.89
74542;BME280;63015;45.378;20.360;2023-03-13T01:14:49;101289.44;;;1.61;63.98
74542;BME280;63015;45.378;20.360;2023-03-13T01:16:49;101298.00;;;1.62;63.78
74542;BME280;63015;45.378;20.360;2023-03-13T01:18:52;101297.22;;;1.63;63.76
74542;BME280;63015;45.378;20.360;2023-03-13T01:20:53;101294.63;;;1.63;63.63
74542;BME280;63015;45.378;20.360;2023-03-13T01:22:53;101297.22;;;1.63;63.77
74542;BME280;63015;45.378;20.360;2023-03-13T01:24:54;101293.78;;;1.62;63.90
74542;BME280;63015;45.378;20.360;2023-03-13T01:26:54;101305.72;;;1.62;63.86
74542;BME280;63015;45.378;20.360;2023-03-13T01:28:55;101313.44;;;1.62;63.64
74542;BME280;63015;45.378;20.360;2023-03-13T01:30:56;101308.28;;;1.62;63.79
74542;BME280;63015;45.378;20.360;2023-03-13T01:32:57;101310.84;;;1.62;63.72
74542;BME280;63015;45.378;20.360;2023-03-13T01:34:57;101304.78;;;1.60;63.92
74542;BME280;63015;45.378;20.360;2023-03-13T01:36:59;101308.06;;;1.57;64.38
74542;BME280;63015;45.378;20.360;2023-03-13T01:39:00;101307.91;;;1.54;64.02
74542;BME280;63015;45.378;20.360;2023-03-13T01:41:01;101295.66;;;1.48;64.37
74542;BME280;63015;45.378;20.360;2023-03-13T01:43:14;101303.28;;;1.47;64.77
74542;BME280;63015;45.378;20.360;2023-03-13T01:45:52;101300.47;;;1.42;65.56
74542;BME280;63015;45.378;20.360;2023-03-13T01:47:54;101290.84;;;1.38;65.10
74542;BME280;63015;45.378;20.360;2023-03-13T01:50:04;101278.75;;;1.36;65.40
74542;BME280;63015;45.378;20.360;2023-03-13T01:52:31;101287.25;;;1.35;65.52
74542;BME280;63015;45.378;20.360;2023-03-13T01:54:57;101291.41;;;1.33;65.44
74542;BME280;63015;45.378;20.360;2023-03-13T01:57:15;101287.81;;;1.29;66.97
74542;BME280;63015;45.378;20.360;2023-03-13T01:59:24;101274.66;;;1.23;67.20
74542;BME280;63015;45.378;20.360;2023-03-13T02:01:26;101277.31;;;1.24;65.97
74542;BME280;63015;45.378;20.360;2023-03-13T02:03:27;101273.94;;;1.25;66.03
74542;BME280;63015;45.378;20.360;2023-03-13T02:05:30;101279.94;;;1.26;66.09
74542;BME280;63015;45.378;20.360;2023-03-13T02:07:36;101276.44;;;1.24;66.33
74542;BME280;63015;45.378;20.360;2023-03-13T02:09:41;101271.38;;;1.25;65.76
74542;BME280;63015;45.378;20.360;2023-03-13T02:11:53;101268.63;;;1.22;66.46
74542;BME280;63015;45.378;20.360;2023-03-13T02:13:57;101270.09;;;1.17;67.16
74542;BME280;63015;45.378;20.360;2023-03-13T02:15:58;101265.78;;;1.16;66.90
74542;BME280;63015;45.378;20.360;2023-03-13T02:18:00;101261.44;;;1.15;67.11
74542;BME280;63015;45.378;20.360;2023-03-13T02:20:01;101265.53;;;1.11;66.81
74542;BME280;63015;45.378;20.360;2023-03-13T02:24:57;101256.66;;;1.05;68.79
74542;BME280;63015;45.378;20.360;2023-03-13T02:26:56;101256.66;;;1.05;67.81
74542;BME280;63015;45.378;20.360;2023-03-13T02:28:57;101247.25;;;1.05;68.10
74542;BME280;63015;45.378;20.360;2023-03-13T02:30:57;101251.50;;;1.05;67.49
74542;BME280;63015;45.378;20.360;2023-03-13T02:32:59;101255.75;;;1.04;67.83
74542;BME280;63015;45.378;20.360;2023-03-13T02:35:05;101254.16;;;1.06;67.45
74542;BME280;63015;45.378;20.360;2023-03-13T02:37:07;101258.25;;;1.03;67.69
74542;BME280;63015;45.378;20.360;2023-03-13T02:39:13;101261.84;;;1.06;67.29
74542;BME280;63015;45.378;20.360;2023-03-13T02:41:16;101264.50;;;1.08;67.76
74542;BME280;63015;45.378;20.360;2023-03-13T02:45:22;101272.13;;;1.06;68.15
74542;BME280;63015;45.378;20.360;2023-03-13T02:47:25;101280.06;;;1.11;67.48
74542;BME280;63015;45.378;20.360;2023-03-13T02:49:29;101277.66;;;1.14;67.18
74542;BME280;63015;45.378;20.360;2023-03-13T02:52:13;101287.78;;;1.11;68.36
74542;BME280;63015;45.378;20.360;2023-03-13T02:54:23;101280.28;;;1.15;67.05
74542;BME280;63015;45.378;20.360;2023-03-13T02:56:26;101285.34;;;1.14;67.03
74542;BME280;63015;45.378;20.360;2023-03-13T02:58:35;101273.00;;;1.07;68.00
74542;BME280;63015;45.378;20.360;2023-03-13T03:00:35;101260.16;;;1.07;67.51
74542;BME280;63015;45.378;20.360;2023-03-13T03:02:36;101262.56;;;1.04;68.35
74542;BME280;63015;45.378;20.360;2023-03-13T03:04:36;101269.22;;;1.00;67.69
74542;BME280;63015;45.378;20.360;2023-03-13T03:06:37;101271.16;;;1.04;67.55
74542;BME280;63015;45.378;20.360;2023-03-13T03:08:39;101276.28;;;1.04;67.92
74542;BME280;63015;45.378;20.360;2023-03-13T03:10:42;101273.81;;;1.06;67.53
74542;BME280;63015;45.378;20.360;2023-03-13T03:12:42;101280.78;;;1.08;67.25
74542;BME280;63015;45.378;20.360;2023-03-13T03:14:43;101288.56;;;1.10;67.29
74542;BME280;63015;45.378;20.360;2023-03-13T03:16:43;101292.81;;;1.09;67.29
74542;BME280;63015;45.378;20.360;2023-03-13T03:18:44;101289.44;;;1.10;67.67
74542;BME280;63015;45.378;20.360;2023-03-13T03:20:44;101293.69;;;1.10;67.22
74542;BME280;63015;45.378;20.360;2023-03-13T03:22:45;101290.34;;;1.11;67.14
74542;BME280;63015;45.378;20.360;2023-03-13T03:24:46;101292.19;;;1.13;67.20
74542;BME280;63015;45.378;20.360;2023-03-13T03:26:47;101296.41;;;1.13;67.20
74542;BME280;63015;45.378;20.360;2023-03-13T03:28:56;101294.50;;;1.09;67.02
74542;BME280;63015;45.378;20.360;2023-03-13T03:30:56;101286.88;;;1.10;67.19
74542;BME280;63015;45.378;20.360;2023-03-13T03:32:57;101289.22;;;1.06;68.26
74542;BME280;63015;45.378;20.360;2023-03-13T03:34:58;101289.94;;;1.03;67.86
74542;BME280;63015;45.378;20.360;2023-03-13T03:36:58;101276.22;;;1.03;67.94
74542;BME280;63015;45.378;20.360;2023-03-13T03:39:02;101286.47;;;1.03;68.26
74542;BME280;63015;45.378;20.360;2023-03-13T03:41:06;101289.75;;;1.00;68.26
74542;BME280;63015;45.378;20.360;2023-03-13T03:43:07;101305.16;;;1.00;68.06
74542;BME280;63015;45.378;20.360;2023-03-13T03:45:08;101300.09;;;1.02;67.99
74542;BME280;63015;45.378;20.360;2023-03-13T03:47:09;101290.50;;;0.97;68.73
74542;BME280;63015;45.378;20.360;2023-03-13T03:49:15;101285.44;;;0.99;68.38
74542;BME280;63015;45.378;20.360;2023-03-13T03:51:15;101282.66;;;0.94;68.59
74542;BME280;63015;45.378;20.360;2023-03-13T03:53:18;101277.34;;;0.91;69.13
74542;BME280;63015;45.378;20.360;2023-03-13T03:55:19;101292.91;;;0.94;68.73
74542;BME280;63015;45.378;20.360;2023-03-13T03:57:19;101293.78;;;0.95;68.54
74542;BME280;63015;45.378;20.360;2023-03-13T03:59:20;101286.88;;;0.94;69.08
74542;BME280;63015;45.378;20.360;2023-03-13T04:01:24;101286.16;;;0.96;68.80
74542;BME280;63015;45.378;20.360;2023-03-13T04:03:24;101288.56;;;0.93;68.69
74542;BME280;63015;45.378;20.360;2023-03-13T04:05:25;101297.97;;;0.93;68.79
74542;BME280;63015;45.378;20.360;2023-03-13T04:07:26;101303.00;;;0.91;69.04
74542;BME280;63015;45.378;20.360;2023-03-13T04:09:27;101303.00;;;0.91;69.17
74542;BME280;63015;45.378;20.360;2023-03-13T04:11:27;101307.97;;;0.88;69.43
74542;BME280;63015;45.378;20.360;2023-03-13T04:13:29;101314.97;;;0.91;68.98
74542;BME280;63015;45.378;20.360;2023-03-13T04:15:32;101322.81;;;0.94;68.79
74542;BME280;63015;45.378;20.360;2023-03-13T04:17:32;101316.00;;;0.94;68.56
74542;BME280;63015;45.378;20.360;2023-03-13T04:19:33;101313.44;;;0.94;68.81
74542;BME280;63015;45.378;20.360;2023-03-13T04:21:34;101301.47;;;0.95;68.86
74542;BME280;63015;45.378;20.360;2023-03-13T04:23:42;101296.13;;;0.90;69.02
74542;BME280;63015;45.378;20.360;2023-03-13T04:25:43;101300.53;;;0.93;68.92
74542;BME280;63015;45.378;20.360;2023-03-13T04:27:45;101293.38;;;0.87;69.19
74542;BME280;63015;45.378;20.360;2023-03-13T04:29:46;101292.66;;;0.90;69.02
74542;BME280;63015;45.378;20.360;2023-03-13T04:32:07;101298.59;;;0.89;69.09
74542;BME280;63015;45.378;20.360;2023-03-13T04:34:32;101294.91;;;0.84;69.67
74542;BME280;63015;45.378;20.360;2023-03-13T04:36:35;101295.63;;;0.81;70.15
74542;BME280;63015;45.378;20.360;2023-03-13T04:38:47;101294.91;;;0.84;69.79
74542;BME280;63015;45.378;20.360;2023-03-13T04:41:14;101297.38;;;0.82;70.35
74542;BME280;63015;45.378;20.360;2023-03-13T04:43:32;101302.53;;;0.82;70.21
74542;BME280;63015;45.378;20.360;2023-03-13T04:45:52;101294.81;;;0.82;70.27
74542;BME280;63015;45.378;20.360;2023-03-13T04:48:09;101288.09;;;0.84;70.55
74542;BME280;63015;45.378;20.360;2023-03-13T04:50:35;101274.47;;;0.85;70.23
74542;BME280;63015;45.378;20.360;2023-03-13T04:52:42;101270.13;;;0.84;70.65
74542;BME280;63015;45.378;20.360;2023-03-13T04:54:59;101273.41;;;0.81;71.03
74542;BME280;63015;45.378;20.360;2023-03-13T04:57:20;101279.34;;;0.80;71.09
74542;BME280;63015;45.378;20.360;2023-03-13T04:59:47;101280.31;;;0.82;70.74
74542;BME280;63015;45.378;20.360;2023-03-13T05:02:11;101285.13;;;0.76;71.94
74542;BME280;63015;45.378;20.360;2023-03-13T05:04:32;101287.84;;;0.79;71.32
74542;BME280;63015;45.378;20.360;2023-03-13T05:06:51;101289.63;;;0.80;70.91
74542;BME280;63015;45.378;20.360;2023-03-13T05:09:12;101291.94;;;0.76;72.03
74542;BME280;63015;45.378;20.360;2023-03-13T05:11:43;101288.63;;;0.78;70.90
74542;BME280;63015;45.378;20.360;2023-03-13T05:14:03;101284.22;;;0.76;71.59
74542;BME280;63015;45.378;20.360;2023-03-13T05:16:21;101280.66;;;0.72;71.42
74542;BME280;63015;45.378;20.360;2023-03-13T05:18:42;101278.94;;;0.73;71.36
74542;BME280;63015;45.378;20.360;2023-03-13T05:21:13;101280.00;;;0.76;71.01
74542;BME280;63015;45.378;20.360;2023-03-13T05:23:32;101282.50;;;0.75;71.24
74542;BME280;63015;45.378;20.360;2023-03-13T05:25:53;101283.44;;;0.77;71.11
74542;BME280;63015;45.378;20.360;2023-03-13T05:28:14;101284.63;;;0.84;70.80
74542;BME280;63015;45.378;20.360;2023-03-13T05:30:34;101288.09;;;0.84;70.87
74542;BME280;63015;45.378;20.360;2023-03-13T05:32:37;101286.25;;;0.81;71.29
74542;BME280;63015;45.378;20.360;2023-03-13T05:34:58;101282.06;;;0.84;70.98
74542;BME280;63015;45.378;20.360;2023-03-13T05:37:16;101281.34;;;0.86;70.97
74542;BME280;63015;45.378;20.360;2023-03-13T05:39:35;101278.06;;;0.89;71.47
74542;BME280;63015;45.378;20.360;2023-03-13T05:42:05;101284.22;;;0.92;71.31
74542;BME280;63015;45.378;20.360;2023-03-13T05:44:35;101284.22;;;0.92;71.22
74542;BME280;63015;45.378;20.360;2023-03-13T05:47:02;101288.81;;;0.98;71.46
74542;BME280;63015;45.378;20.360;2023-03-13T05:49:21;101299.16;;;1.00;71.37
74542;BME280;63015;45.378;20.360;2023-03-13T05:51:40;101315.19;;;1.12;70.47
74542;BME280;63015;45.378;20.360;2023-03-13T05:53:54;101305.22;;;1.18;70.77
74542;BME280;63015;45.378;20.360;2023-03-13T05:56:15;101312.53;;;1.27;70.14
74542;BME280;63015;45.378;20.360;2023-03-13T05:58:15;101314.63;;;1.34;70.37
74542;BME280;63015;45.378;20.360;2023-03-13T06:00:24;101307.44;;;1.45;69.80
74542;BME280;63015;45.378;20.360;2023-03-13T06:02:53;101319.47;;;1.62;69.65
74542;BME280;63015;45.378;20.360;2023-03-13T06:05:01;101326.00;;;1.74;69.23
74542;BME280;63015;45.378;20.360;2023-03-13T06:07:02;101326.69;;;1.88;69.13
74542;BME280;63015;45.378;20.360;2023-03-13T06:09:03;101324.06;;;2.04;68.64
74542;BME280;63015;45.378;20.360;2023-03-13T06:11:06;101317.38;;;2.08;68.38
74542;BME280;63015;45.378;20.360;2023-03-13T06:13:07;101320.25;;;2.14;68.08
74542;BME280;63015;45.378;20.360;2023-03-13T06:15:10;101319.03;;;2.25;67.98
74542;BME280;63015;45.378;20.360;2023-03-13T06:17:46;101324.03;;;2.40;67.10
74542;BME280;63015;45.378;20.360;2023-03-13T06:19:46;101325.13;;;2.45;66.91
74542;BME280;63015;45.378;20.360;2023-03-13T06:21:47;101319.19;;;2.46;67.25
74542;BME280;63015;45.378;20.360;2023-03-13T06:23:47;101322.16;;;2.56;66.75
74542;BME280;63015;45.378;20.360;2023-03-13T06:25:48;101312.16;;;2.62;66.67
74542;BME280;63015;45.378;20.360;2023-03-13T06:27:48;101309.94;;;2.70;66.08
74542;BME280;63015;45.378;20.360;2023-03-13T06:29:49;101317.38;;;2.63;66.05
74542;BME280;63015;45.378;20.360;2023-03-13T06:31:50;101311.84;;;2.74;65.81
74542;BME280;63015;45.378;20.360;2023-03-13T06:33:54;101313.47;;;2.72;65.89
74542;BME280;63015;45.378;20.360;2023-03-13T06:35:55;101308.06;;;2.85;66.29
74542;BME280;63015;45.378;20.360;2023-03-13T06:37:55;101307.25;;;3.06;65.52
74542;BME280;63015;45.378;20.360;2023-03-13T06:39:56;101303.84;;;3.26;65.33
74542;BME280;63015;45.378;20.360;2023-03-13T06:41:56;101304.16;;;3.34;65.13
74542;BME280;63015;45.378;20.360;2023-03-13T06:43:57;101293.88;;;3.55;64.55
74542;BME280;63015;45.378;20.360;2023-03-13T06:46:02;101297.72;;;3.65;63.99
74542;BME280;63015;45.378;20.360;2023-03-13T06:48:03;101292.69;;;3.68;64.04
74542;BME280;63015;45.378;20.360;2023-03-13T06:50:06;101295.84;;;3.82;63.33
74542;BME280;63015;45.378;20.360;2023-03-13T06:52:07;101295.06;;;4.06;62.92
74542;BME280;63015;45.378;20.360;2023-03-13T06:54:07;101280.81;;;4.16;62.29
74542;BME280;63015;45.378;20.360;2023-03-13T06:56:08;101289.09;;;4.30;62.49
74542;BME280;63015;45.378;20.360;2023-03-13T06:58:09;101292.16;;;4.42;62.20
74542;BME280;63015;45.378;20.360;2023-03-13T07:00:10;101280.59;;;4.55;61.72
74542;BME280;63015;45.378;20.360;2023-03-13T07:02:11;101277.84;;;4.50;61.45
74542;BME280;63015;45.378;20.360;2023-03-13T07:04:12;101278.72;;;4.75;61.31
74542;BME280;63015;45.378;20.360;2023-03-13T07:06:13;101283.09;;;5.00;60.82
74542;BME280;63015;45.378;20.360;2023-03-13T07:08:14;101281.28;;;5.22;59.96
74542;BME280;63015;45.378;20.360;2023-03-13T07:10:15;101283.34;;;5.32;59.98
74542;BME280;63015;45.378;20.360;2023-03-13T07:12:15;101286.44;;;5.48;59.48
74542;BME280;63015;45.378;20.360;2023-03-13T07:14:16;101282.63;;;5.89;59.85
74542;BME280;63015;45.378;20.360;2023-03-13T07:16:17;101290.56;;;6.21;59.28
74542;BME280;63015;45.378;20.360;2023-03-13T07:18:17;101292.75;;;6.36;57.38
74542;BME280;63015;45.378;20.360;2023-03-13T07:20:18;101292.13;;;6.45;57.77
74542;BME280;63015;45.378;20.360;2023-03-13T07:22:18;101288.06;;;6.53;57.36
74542;BME280;63015;45.378;20.360;2023-03-13T07:24:19;101310.94;;;6.68;56.33
74542;BME280;63015;45.378;20.360;2023-03-13T07:26:20;101316.31;;;7.05;56.75
74542;BME280;63015;45.378;20.360;2023-03-13T07:28:21;101320.22;;;7.22;55.69
74542;BME280;63015;45.378;20.360;2023-03-13T07:30:22;101317.41;;;7.47;54.91
74542;BME280;63015;45.378;20.360;2023-03-13T07:32:22;101319.41;;;7.57;54.45
74542;BME280;63015;45.378;20.360;2023-03-13T07:34:23;101316.41;;;7.75;54.41
74542;BME280;63015;45.378;20.360;2023-03-13T07:36:24;101325.00;;;8.07;54.29
74542;BME280;63015;45.378;20.360;2023-03-13T07:38:24;101323.94;;;8.37;54.28
74542;BME280;63015;45.378;20.360;2023-03-13T07:40:25;101329.06;;;8.72;53.14
74542;BME280;63015;45.378;20.360;2023-03-13T07:42:25;101323.31;;;8.87;52.88
74542;BME280;63015;45.378;20.360;2023-03-13T07:44:26;101315.22;;;9.18;51.59
74542;BME280;63015;45.378;20.360;2023-03-13T07:46:26;101310.16;;;9.26;51.51
74542;BME280;63015;45.378;20.360;2023-03-13T07:48:31;101306.72;;;9.27;49.98
74542;BME280;63015;45.378;20.360;2023-03-13T07:50:32;101317.44;;;9.44;50.67
74542;BME280;63015;45.378;20.360;2023-03-13T07:52:32;101313.06;;;9.41;50.15
74542;BME280;63015;45.378;20.360;2023-03-13T07:54:33;101294.09;;;9.47;50.32
74542;BME280;63015;45.378;20.360;2023-03-13T07:56:33;101293.16;;;9.43;50.38
74542;BME280;63015;45.378;20.360;2023-03-13T07:58:36;101287.53;;;9.69;50.17
74542;BME280;63015;45.378;20.360;2023-03-13T08:00:37;101294.78;;;9.88;48.70
74542;BME280;63015;45.378;20.360;2023-03-13T08:02:37;101292.97;;;9.83;47.95
74542;BME280;63015;45.378;20.360;2023-03-13T08:04:38;101294.66;;;9.81;48.02
74542;BME280;63015;45.378;20.360;2023-03-13T08:06:39;101296.25;;;9.73;47.69
74542;BME280;63015;45.378;20.360;2023-03-13T08:08:41;101289.47;;;9.84;47.51
74542;BME280;63015;45.378;20.360;2023-03-13T08:10:42;101287.91;;;9.92;47.54
74542;BME280;63015;45.378;20.360;2023-03-13T08:12:42;101280.31;;;10.09;45.98
74542;BME280;63015;45.378;20.360;2023-03-13T08:14:43;101277.63;;;10.03;46.03
74542;BME280;63015;45.378;20.360;2023-03-13T08:16:43;101282.06;;;10.09;45.91
74542;BME280;63015;45.378;20.360;2023-03-13T08:18:46;101273.34;;;10.07;45.92
74542;BME280;63015;45.378;20.360;2023-03-13T08:20:47;101274.88;;;9.92;44.92
74542;BME280;63015;45.378;20.360;2023-03-13T08:22:47;101270.28;;;9.76;45.68
74542;BME280;63015;45.378;20.360;2023-03-13T08:24:49;101262.84;;;10.02;44.78
74542;BME280;63015;45.378;20.360;2023-03-13T08:26:50;101258.75;;;10.16;44.71
74542;BME280;63015;45.378;20.360;2023-03-13T08:28:52;101263.13;;;10.19;44.50
74542;BME280;63015;45.378;20.360;2023-03-13T08:30:53;101270.47;;;10.48;44.79
74542;BME280;63015;45.378;20.360;2023-03-13T08:32:54;101268.22;;;10.74;44.14
74542;BME280;63015;45.378;20.360;2023-03-13T08:34:54;101258.16;;;11.11;44.62
74542;BME280;63015;45.378;20.360;2023-03-13T08:36:55;101263.56;;;11.30;43.63
74542;BME280;63015;45.378;20.360;2023-03-13T08:38:59;101260.84;;;11.19;42.70
74542;BME280;63015;45.378;20.360;2023-03-13T08:41:00;101265.78;;;10.91;41.88
74542;BME280;63015;45.378;20.360;2023-03-13T08:43:01;101271.78;;;10.82;42.51
74542;BME280;63015;45.378;20.360;2023-03-13T08:45:01;101270.84;;;10.77;43.15
74542;BME280;63015;45.378;20.360;2023-03-13T08:47:05;101266.38;;;10.68;43.10
74542;BME280;63015;45.378;20.360;2023-03-13T08:49:06;101280.41;;;10.78;43.36
74542;BME280;63015;45.378;20.360;2023-03-13T08:51:09;101279.56;;;10.79;42.91
74542;BME280;63015;45.378;20.360;2023-03-13T08:53:10;101281.94;;;10.62;43.08
74542;BME280;63015;45.378;20.360;2023-03-13T08:55:10;101283.69;;;10.63;42.98
74542;BME280;63015;45.378;20.360;2023-03-13T08:57:11;101288.06;;;10.63;42.39
74542;BME280;63015;45.378;20.360;2023-03-13T08:59:12;101287.22;;;10.65;42.24
74542;BME280;63015;45.378;20.360;2023-03-13T09:01:14;101282.00;;;10.67;42.54
74542;BME280;63015;45.378;20.360;2023-03-13T09:03:15;101273.44;;;10.74;42.96
74542;BME280;63015;45.378;20.360;2023-03-13T09:05:16;101265.56;;;10.73;42.49
74542;BME280;63015;45.378;20.360;2023-03-13T09:07:17;101267.63;;;11.00;41.83
74542;BME280;63015;45.378;20.360;2023-03-13T09:09:17;101255.44;;;10.97;41.97
74542;BME280;63015;45.378;20.360;2023-03-13T09:11:20;101255.38;;;10.93;41.99
74542;BME280;63015;45.378;20.360;2023-03-13T09:13:20;101254.69;;;11.11;41.88
74542;BME280;63015;45.378;20.360;2023-03-13T09:15:21;101256.44;;;11.13;42.26
74542;BME280;63015;45.378;20.360;2023-03-13T09:17:21;101254.63;;;11.06;42.01
74542;BME280;63015;45.378;20.360;2023-03-13T09:19:22;101241.56;;;11.05;41.91
74542;BME280;63015;45.378;20.360;2023-03-13T09:21:25;101250.31;;;11.08;42.36
74542;BME280;63015;45.378;20.360;2023-03-13T09:23:26;101249.75;;;11.42;41.78
74542;BME280;63015;45.378;20.360;2023-03-13T09:25:26;101248.00;;;11.36;40.52
74542;BME280;63015;45.378;20.360;2023-03-13T09:27:27;101253.22;;;11.41;40.32
74542;BME280;63015;45.378;20.360;2023-03-13T09:29:27;101241.84;;;11.32;40.63
74542;BME280;63015;45.378;20.360;2023-03-13T09:31:30;101234.06;;;11.37;41.75
74542;BME280;63015;45.378;20.360;2023-03-13T09:33:31;101221.19;;;11.57;41.05
74542;BME280;63015;45.378;20.360;2023-03-13T09:35:31;101231.75;;;11.74;40.76
74542;BME280;63015;45.378;20.360;2023-03-13T09:37:32;101223.22;;;12.00;41.10
74542;BME280;63015;45.378;20.360;2023-03-13T09:39:32;101221.56;;;12.10;40.25
74542;BME280;63015;45.378;20.360;2023-03-13T09:41:37;101222.38;;;12.03;40.13
74542;BME280;63015;45.378;20.360;2023-03-13T09:46:00;101210.09;;;11.94;39.43
74542;BME280;63015;45.378;20.360;2023-03-13T09:48:21;101212.00;;;12.15;39.09
74542;BME280;63015;45.378;20.360;2023-03-13T09:50:34;101207.47;;;11.92;39.43
74542;BME280;63015;45.378;20.360;2023-03-13T09:52:39;101197.91;;;11.91;40.10
74542;BME280;63015;45.378;20.360;2023-03-13T09:54:53;101204.88;;;11.91;40.51
74542;BME280;63015;45.378;20.360;2023-03-13T09:57:02;101194.59;;;12.14;39.61
74542;BME280;63015;45.378;20.360;2023-03-13T10:01:29;101189.28;;;11.98;38.64
74542;BME280;63015;45.378;20.360;2023-03-13T10:03:38;101189.28;;;12.01;38.88
74542;BME280;63015;45.378;20.360;2023-03-13T10:05:46;101186.72;;;12.08;39.60
74542;BME280;63015;45.378;20.360;2023-03-13T10:07:48;101180.72;;;12.33;39.69
74542;BME280;63015;45.378;20.360;2023-03-13T10:09:49;101171.19;;;12.48;37.43
74542;BME280;63015;45.378;20.360;2023-03-13T10:12:40;101169.41;;;12.38;37.25
74542;BME280;63015;45.378;20.360;2023-03-13T10:16:58;101162.41;;;12.27;38.66
74542;BME280;63015;45.378;20.360;2023-03-13T10:19:11;101152.94;;;12.63;37.78
74542;BME280;63015;45.378;20.360;2023-03-13T10:21:18;101152.06;;;12.66;36.90
74542;BME280;63015;45.378;20.360;2023-03-13T10:23:42;101150.31;;;12.70;37.41
74542;BME280;63015;45.378;20.360;2023-03-13T10:25:46;101147.72;;;12.79;37.29
74542;BME280;63015;45.378;20.360;2023-03-13T10:27:48;101143.34;;;12.59;37.07
74542;BME280;63015;45.378;20.360;2023-03-13T10:29:49;101144.25;;;12.77;36.96
74542;BME280;63015;45.378;20.360;2023-03-13T10:32:14;101140.72;;;12.58;35.26
74542;BME280;63015;45.378;20.360;2023-03-13T10:34:14;101132.91;;;12.73;36.46
74542;BME280;63015;45.378;20.360;2023-03-13T10:36:15;101131.19;;;12.88;36.94
74542;BME280;63015;45.378;20.360;2023-03-13T10:38:20;101121.59;;;12.82;35.54
74542;BME280;63015;45.378;20.360;2023-03-13T10:40:26;101134.66;;;12.77;35.37
74542;BME280;63015;45.378;20.360;2023-03-13T10:42:30;101126.78;;;12.53;35.86
74542;BME280;63015;45.378;20.360;2023-03-13T10:44:32;101117.16;;;12.42;36.59
74542;BME280;63015;45.378;20.360;2023-03-13T10:46:35;101116.28;;;12.45;36.36
74542;BME280;63015;45.378;20.360;2023-03-13T10:48:40;101113.72;;;12.60;36.09
74542;BME280;63015;45.378;20.360;2023-03-13T10:50:46;101113.75;;;12.73;35.68
74542;BME280;63015;45.378;20.360;2023-03-13T10:52:47;101115.47;;;12.78;35.35
74542;BME280;63015;45.378;20.360;2023-03-13T10:54:49;101108.53;;;12.88;34.69
74542;BME280;63015;45.378;20.360;2023-03-13T10:56:50;101105.88;;;12.87;34.20
74542;BME280;63015;45.378;20.360;2023-03-13T10:58:52;101102.41;;;12.80;34.19
74542;BME280;63015;45.378;20.360;2023-03-13T11:01:13;101101.50;;;12.67;35.06
74542;BME280;63015;45.378;20.360;2023-03-13T11:03:30;101097.19;;;12.94;35.61
74542;BME280;63015;45.378;20.360;2023-03-13T11:05:38;101098.06;;;13.19;33.87